Flight Track Log - Related Links

Times and Time Zones

All times are in EDT time to prevent confusion due to time zone crossing. See the SWA286 flight status page for this flight to view local times or setup timezone preferences in your user account.

Time Position Orientation Groundspeed Altitude Reporting Facility
EDT Latitude Longitude Course Direction KTS MPH feet Rate Location/Type
Tue 04:43:32 PM 36.1000 -86.6833 238° Southwest 165 190 1,500  Level Nashville TRACON
Tue 04:44:02 PM 36.0833 -86.7167 238° Southwest 176 203 2,400 1,667 Climbing Nashville TRACON
Tue 04:45:02 PM 36.1000 -86.7833 287° West 230 265 4,000 1,227 Climbing Nashville TRACON
Tue 04:46:14 PM 36.1167 -86.8833 282° West 234 269 5,100 2,295 Climbing Nashville TRACON
Tue 04:48:05 PM 36.1636 -87.0150 294° West 253 291 11,000 2,632 Climbing Memphis Center
Tue 04:49:05 PM 36.1931 -87.1114 291° West 283 326 12,600 2,450 Climbing Memphis Center
Tue 04:50:05 PM 36.2272 -87.2233 291° West 335 386 15,900 3,100 Climbing Memphis Center
Tue 04:51:05 PM 36.2575 -87.3508 286° West 352 405 18,800 2,800 Climbing Memphis Center
Tue 04:52:05 PM 36.2836 -87.4761 285° West 365 420 21,500 2,450 Climbing Memphis Center
Tue 04:53:05 PM 36.3008 -87.6017 280° West 376 433 23,700 2,150 Climbing Memphis Center
Tue 04:54:05 PM 36.2936 -87.7383 266° West 389 448 25,800 2,400 Climbing Memphis Center
Tue 04:55:05 PM 36.2922 -87.8775 269° West 406 467 28,500 2,350 Climbing Memphis Center
Tue 04:56:05 PM 36.2947 -88.0111 271° West 401 461 30,500 1,850 Climbing Memphis Center
Tue 04:57:05 PM 36.2950 -88.1322 270° West 401 461 32,200 1,950 Climbing Memphis Center
Tue 04:58:05 PM 36.2950 -88.2583 270° West 390 449 34,400 1,250 Climbing Memphis Center
Tue 04:59:05 PM 36.2972 -88.3922 271° West 390 449 34,700 650 Climbing Memphis Center
Tue 05:00:05 PM 36.2972 -88.5339 270° West 397 457 35,700 1,250 Climbing Memphis Center
Tue 05:01:05 PM 36.2992 -88.6728 271° West 404 465 37,200 1,150 Climbing Memphis Center
Tue 05:02:05 PM 36.3322 -88.8036 287° West 404 465 38,000 400 Climbing Memphis Center
Tue 05:03:05 PM 36.3631 -88.9344 286° West 399 459 38,000  Level Memphis Center
Tue 05:04:05 PM 36.3956 -89.0603 288° West 394 453 38,000  Level Memphis Center
Tue 05:05:05 PM 36.4303 -89.1911 288° West 394 453 38,000  Level Memphis Center
Tue 05:06:05 PM 36.4608 -89.3275 286° West 404 465 38,000  Level Memphis Center
Tue 05:07:05 PM 36.4972 -89.4767 287° West 410 472 38,000  Level Memphis Center
Tue 05:08:05 PM 36.5253 -89.6028 286° West 405 466 38,000  Level Memphis Center
Tue 05:09:05 PM 36.5553 -89.7292 286° West 395 455 38,000  Level Memphis Center
Tue 05:10:05 PM 36.5869 -89.8633 286° West 395 455 38,000  Level Memphis Center
Tue 05:11:05 PM 36.6167 -89.9925 286° West 395 455 38,000  Level Memphis Center
Tue 05:12:05 PM 36.6483 -90.1242 287° West 395 455 38,000  Level Memphis Center
Tue 05:13:05 PM 36.6797 -90.2561 287° West 395 455 38,000  Level Memphis Center
Tue 05:14:05 PM 36.7089 -90.3881 285° West 395 455 38,000  Level Memphis Center
Tue 05:15:05 PM 36.7381 -90.5175 286° West 395 455 38,000  Level Memphis Center
Tue 05:16:05 PM 36.7711 -90.6497 287° West 395 455 38,000  Level Memphis Center
Tue 05:17:05 PM 36.8000 -90.7819 285° West 395 455 38,000  Level Memphis Center
Tue 05:19:13 PM 36.8617 -91.0497 286° West 401 461 38,000  Level Kansas Center
Tue 05:20:13 PM 36.8950 -91.1914 286° West 401 461 38,000  Level Kansas Center
Tue 05:21:17 PM 36.9253 -91.3256 286° West 400 460 38,000  Level Kansas Center
Tue 05:22:18 PM 36.9547 -91.4617 285° West 402 463 38,000  Level Kansas Center
Tue 05:23:19 PM 36.9842 -91.5975 285° West 403 464 38,000  Level Kansas Center
Tue 05:24:23 PM 37.0139 -91.7325 285° West 402 463 38,000  Level Kansas Center
Tue 05:25:26 PM 37.0444 -91.8681 286° West 402 463 38,000  Level Kansas Center
Tue 05:26:27 PM 37.0806 -92.0306 286° West 402 463 38,000  Level Kansas Center
Tue 05:27:28 PM 37.1100 -92.1675 285° West 403 464 38,000  Level Kansas Center
Tue 05:28:32 PM 37.1394 -92.3044 285° West 404 465 38,000  Level Kansas Center
Tue 05:29:32 PM 37.1697 -92.4428 285° West 407 468 38,000  Level Kansas Center
Tue 05:30:36 PM 37.1981 -92.5822 284° West 409 471 38,000  Level Kansas Center
Tue 05:31:37 PM 37.2281 -92.7214 285° West 410 472 38,000  Level Kansas Center
Tue 05:32:40 PM 37.2589 -92.8622 285° West 412 474 38,000  Level Kansas Center
Tue 05:33:41 PM 37.2864 -93.0028 284° West 413 475 38,000  Level Kansas Center
Tue 05:34:42 PM 37.3208 -93.1658 285° West 405 466 38,000  Level Kansas Center
Tue 05:35:46 PM 37.3500 -93.3053 285° West 406 467 38,000  Level Kansas Center
Tue 05:36:48 PM 37.3842 -93.4397 288° West 404 465 38,000  Level Kansas Center
Tue 05:37:48 PM 37.4231 -93.5744 290° West 405 466 38,000  Level Kansas Center
Tue 05:38:52 PM 37.4619 -93.7097 290° West 408 470 38,000  Level Kansas Center
Tue 05:39:52 PM 37.4994 -93.8453 289° West 409 471 38,000  Level Kansas Center
Tue 05:40:56 PM 37.5364 -93.9800 289° West 407 468 38,000  Level Kansas Center
Tue 05:41:58 PM 37.5789 -94.1369 289° West 405 466 38,000  Level Kansas Center
Tue 05:42:59 PM 37.6158 -94.2725 289° West 407 468 38,000  Level Kansas Center
Tue 05:44:00 PM 37.6508 -94.4053 288° West 403 464 38,000  Level Kansas Center
Tue 05:45:05 PM 37.6900 -94.5472 289° West 407 468 38,000  Level Kansas Center
Tue 05:46:06 PM 37.7253 -94.6769 289° West 408 470 38,000  Level Kansas Center
Tue 05:47:08 PM 37.7656 -94.8286 289° West 408 470 38,000  Level Kansas Center
Tue 05:48:09 PM 37.8003 -94.9600 289° West 410 472 38,000  Level Kansas Center
Tue 05:49:12 PM 37.8397 -95.1131 288° West 410 472 38,000  Level Kansas Center
Tue 05:50:13 PM 37.8750 -95.2478 288° West 408 470 38,000  Level Kansas Center
Tue 05:51:16 PM 37.9108 -95.3833 289° West 406 467 38,000  Level Kansas Center
Tue 05:52:17 PM 37.9481 -95.5269 288° West 410 472 38,000  Level Kansas Center
Tue 05:53:20 PM 37.9878 -95.6794 288° West 406 467 38,000  Level Kansas Center
Tue 05:54:21 PM 38.0217 -95.8089 288° West 404 465 38,000  Level Kansas Center
Tue 05:55:22 PM 38.0544 -95.9375 288° West 402 463 38,000  Level Kansas Center
Tue 05:56:27 PM 38.0931 -96.0897 288° West 405 466 38,000  Level Kansas Center
Tue 05:57:28 PM 38.1261 -96.2250 287° West 407 468 38,000  Level Kansas Center
Tue 05:58:29 PM 38.1608 -96.3617 288° West 408 470 38,000  Level Kansas Center
Tue 05:59:33 PM 38.1942 -96.4975 287° West 405 466 38,000  Level Kansas Center
Tue 06:00:35 PM 38.2289 -96.6325 288° West 403 464 38,000  Level Kansas Center
Tue 06:01:35 PM 38.2692 -96.7956 288° West 403 464 38,000  Level Kansas Center
Tue 06:02:39 PM 38.3014 -96.9294 287° West 399 459 38,000  Level Kansas Center
Tue 06:03:41 PM 38.3347 -97.0636 288° West 399 459 38,000 290 Level Kansas Center
Tue 06:04:43 PM 38.3669 -97.1978 287° West 398 458 38,600 581 Climbing Kansas Center
Tue 06:05:45 PM 38.3997 -97.3333 287° West 402 463 39,200 639 Climbing Kansas Center
Tue 06:06:45 PM 38.4400 -97.5011 287° West 413 475 39,900 390 Climbing Kansas Center
Tue 06:07:48 PM 38.4733 -97.6428 287° West 419 482 40,000 48 Climbing Kansas Center
Tue 06:08:50 PM 38.5067 -97.7825 287° West 415 478 40,000  Level Kansas Center
Tue 06:09:51 PM 38.5400 -97.9236 287° West 417 480 40,000  Level Kansas Center
Tue 06:10:56 PM 38.5722 -98.0642 286° West 416 479 40,000  Level Kansas Center
Tue 06:11:57 PM 38.6122 -98.2347 287° West 419 482 40,000  Level Kansas Center
Tue 06:12:57 PM 38.6453 -98.3772 287° West 420 483 40,000  Level Kansas Center
Tue 06:14:02 PM 38.6781 -98.5183 287° West 417 480 40,000  Level Kansas Center
Tue 06:15:04 PM 38.7100 -98.6589 286° West 413 475 40,000  Level Kansas Center
Tue 06:16:06 PM 38.7414 -98.7972 286° West 407 468 40,000  Level Kansas Center
Tue 06:17:08 PM 38.7714 -98.9333 286° West 400 460 40,000  Level Kansas Center
Tue 06:18:11 PM 38.8081 -99.0956 286° West 397 457 40,000  Level Kansas Center
Tue 06:19:10 PM 38.8381 -99.2317 286° West 396 456 40,000  Level Kansas Center
Tue 06:20:14 PM 38.8494 -99.3694 276° West 392 451 40,000  Level Kansas Center
Tue 06:21:15 PM 38.8506 -99.5083 271° West 390 449 40,000  Level Kansas Center
Tue 06:22:18 PM 38.8517 -99.6717 271° West 392 451 40,000  Level Kansas Center
Tue 06:23:19 PM 38.8519 -99.8056 270° West 393 452 40,000  Level Kansas Center
Tue 06:24:20 PM 38.8542 -99.9403 271° West 395 455 40,000  Level Kansas Center
Tue 06:25:24 PM 38.8544 -100.0981 270° West 401 461 40,000  Level Denver Center
Tue 06:26:26 PM 38.8544 -100.2561 270° West 399 459 40,000  Level Denver Center
Tue 06:27:28 PM 38.8550 -100.3939 270° West 403 464 40,000  Level Denver Center
Tue 06:28:30 PM 38.8556 -100.5525 270° West 402 463 40,000  Level Denver Center
Tue 06:29:31 PM 38.8553 -100.6892 270° West 401 461 40,000  Level Denver Center
Tue 06:30:33 PM 38.8544 -100.8494 270° West 404 465 40,000  Level Denver Center
Tue 06:31:35 PM 38.8542 -100.9628 270° West 403 464 40,000  Level Denver Center
Tue 06:32:37 PM 38.8539 -101.1228 270° West 403 464 40,000 -532 Level Denver Center
Tue 06:33:39 PM 38.8531 -101.2806 270° West 400 460 38,900 -968 Descending Denver Center
Tue 06:34:41 PM 38.8525 -101.4133 270° West 393 452 38,000 -871 Descending Denver Center
Tue 06:35:43 PM 38.8508 -101.5689 269° West 393 452 37,100 -871 Descending Denver Center
Tue 06:36:45 PM 38.8500 -101.6986 270° West 384 442 36,200 -1,024 Descending Denver Center
Tue 06:37:46 PM 38.8483 -101.8436 269° West 369 425 35,000 -1,073 Descending Denver Center
Tue 06:38:48 PM 38.8469 -101.9650 269° West 361 415 34,000 -1,016 Descending Denver Center
Tue 06:39:50 PM 38.8453 -102.1044 269° West 351 404 32,900 -919 Descending Denver Center
Tue 06:40:52 PM 38.8467 -102.2261 271° West 357 411 32,100 -919 Descending Denver Center
Tue 06:41:54 PM 38.8886 -102.3728 290° West 390 449 31,000 -1,016 Descending Denver Center
Tue 06:42:56 PM 38.9253 -102.4933 291° West 381 438 30,000 -488 Descending Denver Center
Tue 06:43:57 PM 38.9692 -102.6314 292° West 377 434 30,000  Level Denver Center
Tue 06:44:59 PM 39.0133 -102.7583 294° West 381 438 30,000  Level Denver Center
Tue 06:46:01 PM 39.0547 -102.8872 293° West 388 447 30,000  Level Denver Center
Tue 06:47:03 PM 39.0989 -103.0164 294° West 390 449 30,000  Level Denver Center
Tue 06:48:04 PM 39.1339 -103.1250 293° West 392 451 30,000  Level Denver Center
Tue 06:49:07 PM 39.1839 -103.2786 293° West 396 456 30,000 -97 Level Denver Center
Tue 06:50:08 PM 39.2264 -103.4075 293° West 386 444 29,800 -1,073 Descending Denver Center
Tue 06:51:10 PM 39.2644 -103.5264 292° West 359 413 27,800 -1,839 Descending Denver Center
Tue 06:52:12 PM 39.3019 -103.6439 292° West 354 407 26,000 -1,790 Descending Denver Center
Tue 06:53:14 PM 39.3431 -103.7717 293° West 329 379 24,100 -1,707 Descending Denver Center
Tue 06:54:15 PM 39.3753 -103.8719 293° West 304 350 22,500 -1,512 Descending Denver Center
Tue 06:55:17 PM 39.4128 -103.9719 296° West 316 364 21,000 -1,500 Descending Denver Center
Tue 06:56:19 PM 39.4694 -104.0583 310° West 316 364 19,400 -1,645 Descending Denver Center
Tue 06:57:21 PM 39.5244 -104.1550 306° West 311 358 17,600 -1,161 Descending Denver Center
Tue 06:58:23 PM 39.5772 -104.2389 309° West 305 351 17,000 -537 Descending Denver Center
Tue 06:59:24 PM 39.6297 -104.3283 307° West 311 358 16,500 -1,073 Descending Denver Center
Tue 07:00:26 PM 39.6861 -104.4222 308° West 307 353 14,800 -1,548 Descending Denver Center
Tue 07:01:28 PM 39.7381 -104.5064 309° West 300 345 13,300 -1,452 Descending Denver Center
Tue 07:02:30 PM 39.8278 -104.5233 352° North 331 381 11,800 -1,122 Descending Denver Center
Tue 07:03:31 PM 39.9056 -104.5222 North 333 383 11,000 -867 Descending Denver Center
Tue 07:03:53 PM 39.9667 -104.5167 North 308 354 10,600 -1,317 Descending Denver TRACON
Tue 07:04:53 PM 40.0333 -104.5500 339° North 267 307 9,200 -1,789 Descending Denver TRACON
Tue 07:05:47 PM 40.0500 -104.6167 288° West 229 264 7,200 -1,269 Descending Denver TRACON
Tue 07:06:37 PM 40.0267 -104.6711 241° Southwest 216 249 7,000 -162 Descending Denver Center
Tue 07:07:38 PM 39.9761 -104.6858 193° South 188 216 6,900 -488 Descending Denver Center
Tue 07:08:40 PM 39.9267 -104.6872 181° South 165 190 6,000 -774 Descending Denver Center
Tue 07:09:42 PM 39.8814 -104.6875 180° South 156 180 5,300 -677 Descending Denver Center
Tue 07:11:00 PM 39.8617 -104.6732 North  Level Estimated
Tue 07:18:00 PM 39.8617 -104.6732 North  Level Estimated
Tue 07:19:00 PM 39.8617 -104.6732 North  Level Estimated
Tue 07:20:00 PM 39.8617 -104.6732 North  Level Estimated

Login

Don't have an account? Register now (free) for customized features, flight alerts, and more!